Time;durP1;ratioP1;P1;durP2;ratioP2;P2;SDS_P1;SDS_P2;PMS_P1;PMS_P2;Temp;Humidity;BMP_temperature;BMP_pressure;BME280_temperature;BME280_humidity;BME280_pressure;Samples;Min_cycle;Max_cycle;Signal;HPM_P1;HPM_P2
2022/09/12 00:00:40;;;;;;;22.73;21.20;;;14.40;99.90;;;;;;4971300;28;20527;-75
2022/09/12 00:03:07;;;;;;;23.70;21.67;;;14.30;99.90;;;;;;4971422;28;20502;-75
2022/09/12 00:05:33;;;;;;;24.53;22.57;;;14.30;99.90;;;;;;4971220;28;20458;-75
2022/09/12 00:08:00;;;;;;;24.47;22.63;;;14.20;99.90;;;;;;4971121;28;20456;-75
2022/09/12 00:10:27;;;;;;;25.27;23.40;;;14.20;99.90;;;;;;4971058;28;20460;-75
2022/09/12 00:12:55;;;;;;;23.93;22.03;;;14.30;99.90;;;;;;4971188;28;20455;-75
2022/09/12 00:15:22;;;;;;;23.70;22.00;;;14.20;99.90;;;;;;4971291;28;20451;-76
2022/09/12 00:17:49;;;;;;;23.67;21.87;;;14.20;99.90;;;;;;4971074;28;20452;-75
2022/09/12 00:20:16;;;;;;;23.47;21.53;;;14.20;99.90;;;;;;4971069;28;20567;-75
2022/09/12 00:22:42;;;;;;;22.47;20.97;;;14.20;99.90;;;;;;4970835;28;20487;-75
2022/09/12 00:25:09;;;;;;;23.73;22.03;;;14.20;99.90;;;;;;4970672;28;20463;-75
2022/09/12 00:27:36;;;;;;;24.10;22.20;;;14.20;99.90;;;;;;4971252;28;20487;-75
2022/09/12 00:30:04;;;;;;;23.77;22.00;;;14.10;99.90;;;;;;4971173;28;20447;-75
2022/09/12 00:32:31;;;;;;;25.27;23.27;;;14.10;99.90;;;;;;4971683;28;20456;-76
2022/09/12 00:34:58;;;;;;;24.03;22.37;;;14.30;99.90;;;;;;4970878;28;20472;-75
2022/09/12 00:37:24;;;;;;;24.90;23.10;;;14.00;99.90;;;;;;4970988;28;20456;-75
2022/09/12 00:39:51;;;;;;;25.33;23.30;;;14.20;99.90;;;;;;4971197;28;20456;-75
2022/09/12 00:42:18;;;;;;;25.10;23.23;;;;;;;;;;4971005;28;20455;-74
2022/09/12 00:44:49;;;;;;;23.60;21.90;;;14.00;99.90;;;;;;4970938;28;20495;-75
2022/09/12 00:47:22;;;;;;;24.17;22.60;;;13.90;99.90;;;;;;4971075;28;20448;-74
2022/09/12 00:49:53;;;;;;;24.23;22.47;;;13.90;99.90;;;;;;4971127;28;20462;-75
2022/09/12 00:52:25;;;;;;;23.47;21.70;;;13.90;99.90;;;;;;4971095;28;20930;-74
2022/09/12 00:54:57;;;;;;;24.53;22.83;;;13.90;99.90;;;;;;4971363;28;20479;-75
2022/09/12 00:57:28;;;;;;;22.47;20.97;;;13.90;99.90;;;;;;4971297;28;20456;-75
2022/09/12 00:59:58;;;;;;;24.43;22.40;;;14.10;99.90;;;;;;4971108;28;20452;-74
2022/09/12 01:02:27;;;;;;;24.10;22.53;;;13.90;99.90;;;;;;4970788;28;20474;-74
2022/09/12 01:04:54;;;;;;;25.13;23.10;;;13.80;99.90;;;;;;4971016;28;20487;-75
2022/09/12 01:07:21;;;;;;;25.27;23.53;;;13.80;99.90;;;;;;4970921;28;20498;-75
2022/09/12 01:09:48;;;;;;;24.30;22.60;;;13.80;99.90;;;;;;4970602;28;20451;-75
2022/09/12 01:12:16;;;;;;;25.10;23.20;;;13.80;99.90;;;;;;4970525;28;20514;-75
2022/09/12 01:14:43;;;;;;;26.00;24.00;;;13.80;99.90;;;;;;4970484;28;20451;-73
2022/09/12 01:17:12;;;;;;;24.80;22.90;;;13.80;99.90;;;;;;4970630;28;20498;-73
2022/09/12 01:20:13;;;;;;;24.93;23.13;;;13.70;99.90;;;;;;4970774;28;20481;-73
2022/09/12 01:23:11;;;;;;;22.93;21.33;;;13.70;99.90;;;;;;4970650;28;20451;-72
2022/09/12 01:25:50;;;;;;;24.23;22.40;;;13.70;99.90;;;;;;4970676;28;20448;-74
2022/09/12 01:28:39;;;;;;;24.03;22.33;;;13.60;99.90;;;;;;4970410;28;20447;-74
2022/09/12 01:31:11;;;;;;;23.77;22.17;;;13.60;99.90;;;;;;4970527;28;20459;-74
2022/09/12 01:33:55;;;;;;;23.87;22.13;;;13.60;99.90;;;;;;4970537;28;20443;-75
2022/09/12 01:36:34;;;;;;;25.57;23.47;;;13.70;99.90;;;;;;4973710;28;20479;-75
2022/09/12 01:39:04;;;;;;;24.67;23.07;;;13.60;99.90;;;;;;4973941;28;20847;-75
2022/09/12 01:41:42;;;;;;;24.73;23.00;;;13.60;99.90;;;;;;4973716;28;20454;-75
2022/09/12 01:44:17;;;;;;;26.13;24.10;;;13.50;99.90;;;;;;4973770;28;20498;-75
2022/09/12 01:46:48;;;;;;;25.87;23.90;;;13.30;99.90;;;;;;4973584;28;20459;-74
2022/09/12 01:49:19;;;;;;;26.13;24.20;;;13.50;99.90;;;;;;4973664;28;20486;-74
2022/09/12 01:51:55;;;;;;;26.13;24.23;;;13.50;99.90;;;;;;4973848;28;20478;-74
2022/09/12 01:54:26;;;;;;;25.10;23.30;;;13.50;99.90;;;;;;4973660;28;20815;-73
2022/09/12 01:56:58;;;;;;;25.00;23.07;;;13.40;99.90;;;;;;4973694;28;20478;-73
2022/09/12 01:59:29;;;;;;;26.13;24.20;;;13.60;99.90;;;;;;4973631;28;20489;-73
2022/09/12 02:02:03;;;;;;;24.27;22.33;;;13.40;99.90;;;;;;4973495;28;20451;-73
2022/09/12 02:04:35;;;;;;;34.27;25.23;;;13.40;99.90;;;;;;4973216;28;20561;-74
2022/09/12 02:07:08;;;;;;;24.00;22.30;;;13.40;99.90;;;;;;4973239;28;20451;-73
2022/09/12 02:09:37;;;;;;;24.67;22.80;;;13.30;99.90;;;;;;4973181;28;20475;-73
2022/09/12 02:12:07;;;;;;;25.30;23.03;;;13.40;99.90;;;;;;4973195;28;20458;-73
2022/09/12 02:14:38;;;;;;;25.97;24.13;;;13.30;99.90;;;;;;4973122;28;20466;-73
2022/09/12 02:17:10;;;;;;;24.43;22.80;;;13.10;99.90;;;;;;4973300;28;20807;-73
2022/09/12 02:19:42;;;;;;;23.43;21.73;;;13.40;99.90;;;;;;4973492;28;20501;-73
2022/09/12 02:22:15;;;;;;;25.43;23.67;;;13.20;99.90;;;;;;4973264;28;20460;-74
2022/09/12 02:24:45;;;;;;;25.97;23.97;;;13.10;99.90;;;;;;4972773;28;20495;-74
2022/09/12 02:27:16;;;;;;;23.83;22.23;;;13.70;99.90;;;;;;4973217;28;20447;-73
2022/09/12 02:29:44;;;;;;;25.30;23.20;;;13.30;99.90;;;;;;4972799;28;20459;-74
2022/09/12 02:32:21;;;;;;;26.90;24.90;;;13.50;99.90;;;;;;4972768;28;20547;-73
2022/09/12 02:34:54;;;;;;;24.77;22.87;;;13.40;99.90;;;;;;4972704;28;20838;-74
2022/09/12 02:37:29;;;;;;;28.03;25.70;;;13.20;99.90;;;;;;4972801;28;20506;-74
2022/09/12 02:39:57;;;;;;;24.60;22.70;;;13.30;99.90;;;;;;4972662;28;20458;-74
2022/09/12 02:42:25;;;;;;;25.07;23.27;;;13.20;99.90;;;;;;4972891;28;20451;-75
2022/09/12 02:44:54;;;;;;;27.83;25.90;;;13.20;99.90;;;;;;4972646;28;20483;-74
2022/09/12 02:47:28;;;;;;;24.17;22.43;;;13.20;99.90;;;;;;4972103;28;20451;-75
2022/09/12 02:49:56;;;;;;;26.17;24.20;;;13.40;99.90;;;;;;4972733;28;20460;-75
2022/09/12 02:52:23;;;;;;;26.13;24.00;;;13.20;99.90;;;;;;4972986;28;20459;-75
2022/09/12 02:54:51;;;;;;;26.47;24.00;;;13.10;99.90;;;;;;4972754;28;20447;-74
2022/09/12 02:57:20;;;;;;;25.10;23.40;;;13.10;99.90;;;;;;4972385;28;20452;-74
2022/09/12 02:59:49;;;;;;;25.17;23.30;;;13.30;99.90;;;;;;4972218;28;20495;-74
2022/09/12 03:02:28;;;;;;;26.83;24.73;;;13.10;99.90;;;;;;4971694;28;21213;-74
2022/09/12 03:05:16;;;;;;;25.30;23.47;;;13.10;99.90;;;;;;4972225;28;21028;-74
2022/09/12 03:08:17;;;;;;;25.90;24.03;;;13.10;99.90;;;;;;4972152;28;20457;-74
2022/09/12 03:11:11;;;;;;;26.80;24.80;;;13.10;99.90;;;;;;4966956;28;20518;-73
2022/09/12 03:13:49;;;;;;;26.53;24.33;;;12.90;99.90;;;;;;4972336;28;20514;-74
2022/09/12 03:16:22;;;;;;;26.47;24.47;;;13.00;99.90;;;;;;4972030;28;20708;-74
2022/09/12 03:18:57;;;;;;;24.33;22.40;;;13.00;99.90;;;;;;4972205;28;20543;-74
2022/09/12 03:21:28;;;;;;;26.77;24.77;;;13.10;99.90;;;;;;4972207;28;20451;-74
2022/09/12 03:24:09;;;;;;;25.20;23.20;;;13.00;99.90;;;;;;4971955;28;21000;-74
2022/09/12 03:26:41;;;;;;;30.27;27.40;;;12.90;99.90;;;;;;4972258;28;20510;-74
2022/09/12 03:29:10;;;;;;;27.40;25.20;;;12.90;99.90;;;;;;4972127;28;20455;-75
2022/09/12 03:31:38;;;;;;;27.93;25.83;;;13.00;99.90;;;;;;4972025;28;20455;-74
2022/09/12 03:34:11;;;;;;;26.70;24.70;;;12.90;99.90;;;;;;4971815;28;20467;-75
2022/09/12 03:36:39;;;;;;;26.67;24.53;;;12.90;99.90;;;;;;4972245;28;20491;-75
2022/09/12 03:39:06;;;;;;;28.07;25.97;;;12.80;99.90;;;;;;4972206;28;20558;-75
2022/09/12 03:41:33;;;;;;;27.93;25.97;;;12.80;99.90;;;;;;4971652;28;20451;-74
2022/09/12 03:44:00;;;;;;;27.63;25.23;;;12.80;99.90;;;;;;4971429;28;20463;-75
2022/09/12 03:46:26;;;;;;;27.67;25.57;;;12.80;99.90;;;;;;4971385;28;20502;-74
2022/09/12 03:48:53;;;;;;;29.50;27.20;;;13.00;99.90;;;;;;4971836;28;20451;-74
2022/09/12 03:51:21;;;;;;;27.17;25.17;;;12.80;99.90;;;;;;4971775;28;20447;-74
2022/09/12 03:53:48;;;;;;;29.70;27.10;;;12.80;99.90;;;;;;4971674;28;20447;-73
2022/09/12 03:56:14;;;;;;;30.77;28.10;;;12.80;99.90;;;;;;4971572;28;20452;-73
2022/09/12 03:58:41;;;;;;;29.90;27.60;;;12.80;99.90;;;;;;4970443;28;20456;-73
2022/09/12 04:01:11;;;;;;;30.90;28.57;;;12.70;99.90;;;;;;4971637;28;20452;-73
2022/09/12 04:03:39;;;;;;;31.07;28.47;;;12.70;99.90;;;;;;4971518;28;20833;-74
2022/09/12 04:06:06;;;;;;;29.27;27.00;;;12.70;99.90;;;;;;4971548;28;20525;-75
2022/09/12 04:08:34;;;;;;;34.27;31.47;;;12.70;99.90;;;;;;4971341;28;20950;-74
2022/09/12 04:11:04;;;;;;;29.67;27.37;;;12.80;99.90;;;;;;4971185;28;20460;-75
2022/09/12 04:13:32;;;;;;;33.27;30.07;;;12.80;99.90;;;;;;4971434;28;20451;-75
2022/09/12 04:15:59;;;;;;;31.37;28.57;;;12.70;99.90;;;;;;4971089;28;20720;-75
2022/09/12 04:18:27;;;;;;;32.50;30.03;;;12.70;99.90;;;;;;4971155;28;20946;-75
2022/09/12 04:20:54;;;;;;;29.07;26.83;;;12.70;99.90;;;;;;4971260;28;20946;-74
2022/09/12 04:23:20;;;;;;;31.37;28.37;;;12.70;99.90;;;;;;4971317;28;20565;-75
2022/09/12 04:25:55;;;;;;;30.43;28.03;;;12.70;99.90;;;;;;4970717;28;21002;-74
2022/09/12 04:28:22;;;;;;;28.60;26.43;;;12.80;99.90;;;;;;4971020;28;20450;-75
2022/09/12 04:30:48;;;;;;;30.27;27.93;;;12.40;99.90;;;;;;4970753;28;20810;-75
2022/09/12 04:33:15;;;;;;;28.77;26.57;;;12.60;99.90;;;;;;4970788;28;20451;-74
2022/09/12 04:35:42;;;;;;;28.53;26.50;;;12.60;99.90;;;;;;4970430;28;20487;-73
2022/09/12 04:38:09;;;;;;;28.50;26.30;;;12.60;99.90;;;;;;4970831;28;20779;-73
2022/09/12 04:40:36;;;;;;;30.40;27.97;;;12.60;99.90;;;;;;4970817;28;20459;-74
2022/09/12 04:43:05;;;;;;;28.77;26.63;;;12.60;99.90;;;;;;4970497;28;20452;-74
2022/09/12 04:45:32;;;;;;;29.43;27.20;;;12.50;99.90;;;;;;4970654;28;20558;-74
2022/09/12 04:47:59;;;;;;;28.53;26.40;;;12.50;99.90;;;;;;4970673;28;20609;-74
2022/09/12 04:50:26;;;;;;;32.10;29.30;;;12.50;99.90;;;;;;4970546;28;20567;-73
2022/09/12 04:52:53;;;;;;;29.63;27.47;;;12.50;99.90;;;;;;4970863;28;20487;-73
2022/09/12 04:55:20;;;;;;;30.07;27.50;;;12.80;99.90;;;;;;4970626;28;20484;-74
2022/09/12 04:57:47;;;;;;;29.33;26.93;;;12.50;99.90;;;;;;4970660;28;20950;-73
2022/09/12 05:00:15;;;;;;;28.90;26.80;;;12.50;99.90;;;;;;4970209;28;20448;-73
2022/09/12 05:02:42;;;;;;;27.30;24.97;;;12.40;99.90;;;;;;4970542;28;20458;-73
2022/09/12 05:05:10;;;;;;;28.73;26.23;;;12.40;99.90;;;;;;4970600;28;20494;-73
2022/09/12 05:07:37;;;;;;;26.30;24.40;;;13.60;99.90;;;;;;4970694;28;20459;-74
2022/09/12 05:10:04;;;;;;;27.07;24.80;;;12.40;99.90;;;;;;4971906;28;20462;-73
2022/09/12 05:12:31;;;;;;;29.87;27.07;;;12.40;99.90;;;;;;4974009;28;20461;-73
2022/09/12 05:14:58;;;;;;;28.63;26.43;;;12.40;99.90;;;;;;4973967;28;20463;-74
2022/09/12 05:17:26;;;;;;;28.80;26.50;;;12.30;99.90;;;;;;4974297;28;20455;-72
2022/09/12 05:19:52;;;;;;;29.13;26.57;;;12.40;99.90;;;;;;4974381;28;20457;-73
2022/09/12 05:22:19;;;;;;;29.17;26.20;;;12.40;99.90;;;;;;4974360;28;20462;-73
2022/09/12 05:24:47;;;;;;;28.50;26.10;;;12.40;99.90;;;;;;4973862;28;20491;-75
2022/09/12 05:27:14;;;;;;;27.07;24.97;;;12.40;99.90;;;;;;4973858;28;20459;-74
2022/09/12 05:29:41;;;;;;;26.77;24.53;;;12.40;99.90;;;;;;4973952;28;20451;-74
2022/09/12 05:32:11;;;;;;;29.43;27.17;;;;;;;;;;4974439;28;20463;-74
2022/09/12 05:34:40;;;;;;;28.00;25.70;;;12.50;99.90;;;;;;4974641;28;20534;-75
2022/09/12 05:37:06;;;;;;;29.20;26.80;;;12.50;99.90;;;;;;4974385;28;20510;-74
2022/09/12 05:39:33;;;;;;;26.93;24.83;;;12.50;99.90;;;;;;4974118;28;20452;-73
2022/09/12 05:42:00;;;;;;;27.80;25.60;;;12.50;99.90;;;;;;4973908;28;20874;-74
2022/09/12 05:44:27;;;;;;;29.27;27.00;;;12.50;99.90;;;;;;4973965;28;20539;-75
2022/09/12 05:46:54;;;;;;;27.90;25.80;;;12.60;99.90;;;;;;4973972;28;20516;-73
2022/09/12 05:49:21;;;;;;;28.53;25.87;;;12.60;99.90;;;;;;4972074;28;20463;-73
2022/09/12 05:51:49;;;;;;;27.90;25.30;;;12.90;99.90;;;;;;4973176;28;20451;-74
2022/09/12 05:54:19;;;;;;;26.37;24.27;;;13.20;99.90;;;;;;4973734;28;20452;-75
2022/09/12 05:56:47;;;;;;;27.97;25.70;;;13.60;99.90;;;;;;4973642;28;21180;-75
2022/09/12 05:59:15;;;;;;;26.13;24.30;;;13.90;99.90;;;;;;4973529;28;20448;-75
2022/09/12 06:01:42;;;;;;;28.70;26.33;;;14.00;99.90;;;;;;4973224;28;20477;-74
2022/09/12 06:04:09;;;;;;;26.60;24.57;;;14.00;99.90;;;;;;4973532;28;20455;-75
2022/09/12 06:06:40;;;;;;;25.07;23.20;;;14.10;99.90;;;;;;4973289;28;20487;-74
2022/09/12 06:09:09;;;;;;;24.73;23.03;;;14.20;99.90;;;;;;4973612;28;20974;-74
2022/09/12 06:11:39;;;;;;;24.70;23.10;;;14.40;99.90;;;;;;4971722;28;20464;-75
2022/09/12 06:14:05;;;;;;;21.83;19.90;;;14.50;99.90;;;;;;4973146;28;20455;-75
2022/09/12 06:16:35;;;;;;;24.67;22.97;;;14.60;99.90;;;;;;4972414;28;20463;-75
2022/09/12 06:19:05;;;;;;;23.20;21.43;;;14.80;99.90;;;;;;4972808;28;20551;-74
2022/09/12 06:21:33;;;;;;;24.00;22.30;;;14.90;99.90;;;;;;4971504;28;20460;-76
2022/09/12 06:24:00;;;;;;;24.00;22.30;;;;;;;;;;4971945;28;20448;-76
2022/09/12 06:26:29;;;;;;;24.20;22.60;;;15.10;99.90;;;;;;4971834;28;20498;-76
2022/09/12 06:28:57;;;;;;;21.53;20.13;;;15.60;99.90;;;;;;4972423;28;20459;-75
2022/09/12 06:31:26;;;;;;;23.97;22.03;;;15.60;99.90;;;;;;4971976;28;20463;-76
2022/09/12 06:33:54;;;;;;;21.47;19.87;;;16.40;99.90;;;;;;4973246;28;20960;-76
2022/09/12 06:36:23;;;;;;;22.60;20.93;;;16.30;99.90;;;;;;4972792;28;20554;-76
2022/09/12 06:38:55;;;;;;;21.00;19.43;;;;;;;;;;4972557;28;20455;-76
2022/09/12 06:41:22;;;;;;;22.57;21.00;;;;;;;;;;4972964;28;20518;-76
2022/09/12 06:43:50;;;;;;;21.80;20.50;;;16.50;99.90;;;;;;4972794;28;20452;-77
2022/09/12 06:46:18;;;;;;;21.23;19.67;;;;;;;;;;4972206;28;20498;-76
2022/09/12 06:48:45;;;;;;;22.13;20.53;;;;;;;;;;4974459;28;21181;-76
2022/09/12 06:51:14;;;;;;;20.73;19.33;;;16.90;99.90;;;;;;4973337;28;20463;-76
2022/09/12 06:53:43;;;;;;;20.73;19.10;;;16.90;99.90;;;;;;4972878;28;20451;-76
2022/09/12 06:56:11;;;;;;;20.33;19.10;;;17.20;99.90;;;;;;4973962;28;20455;-75
2022/09/12 06:58:38;;;;;;;20.03;18.73;;;17.70;99.90;;;;;;4972890;28;20534;-74
2022/09/12 07:01:09;;;;;;;20.17;18.57;;;17.90;99.90;;;;;;4972412;28;20554;-75
2022/09/12 07:03:37;;;;;;;22.07;20.30;;;18.20;99.90;;;;;;4972467;28;20502;-75
2022/09/12 07:06:05;;;;;;;20.50;19.23;;;18.40;99.90;;;;;;4971889;28;21005;-75
2022/09/12 07:08:32;;;;;;;20.97;19.67;;;18.30;99.90;;;;;;4972297;28;20455;-76
2022/09/12 07:11:01;;;;;;;20.03;18.63;;;18.50;99.90;;;;;;4972425;28;20455;-76
2022/09/12 07:13:28;;;;;;;19.43;18.20;;;18.30;99.90;;;;;;4972566;28;20522;-77
2022/09/12 07:15:55;;;;;;;19.83;18.63;;;18.40;99.90;;;;;;4972355;28;20456;-76
2022/09/12 07:18:23;;;;;;;20.60;19.30;;;18.40;99.90;;;;;;4972792;28;20817;-77
2022/09/12 07:20:50;;;;;;;21.37;19.97;;;18.30;99.90;;;;;;4972636;28;20444;-77
2022/09/12 07:23:16;;;;;;;21.03;19.47;;;18.70;99.90;;;;;;4972934;28;20515;-76
2022/09/12 07:25:43;;;;;;;21.10;19.93;;;18.90;99.90;;;;;;4971326;28;20551;-76
2022/09/12 07:28:10;;;;;;;19.93;18.63;;;19.10;99.90;;;;;;4971269;28;20459;-77
2022/09/12 07:30:38;;;;;;;18.53;17.33;;;19.30;99.90;;;;;;4972039;28;20522;-76
2022/09/12 07:33:05;;;;;;;17.70;16.50;;;19.50;99.90;;;;;;4972773;28;20487;-77
2022/09/12 07:35:34;;;;;;;18.70;17.47;;;19.80;99.90;;;;;;4971301;28;20791;-77
2022/09/12 07:38:01;;;;;;;17.87;16.77;;;19.70;99.90;;;;;;4972984;28;20844;-78
2022/09/12 07:40:28;;;;;;;18.40;17.20;;;19.90;99.90;;;;;;4971630;28;20877;-76
2022/09/12 07:42:54;;;;;;;18.90;17.30;;;20.10;99.90;;;;;;4971345;28;20510;-76
2022/09/12 07:45:22;;;;;;;29.63;19.17;;;20.40;99.90;;;;;;4971878;28;20494;-75
2022/09/12 07:47:49;;;;;;;18.63;17.03;;;20.60;99.90;;;;;;4968773;28;20804;-75
2022/09/12 07:50:16;;;;;;;18.43;17.43;;;20.60;99.90;;;;;;4970700;28;20483;-77
2022/09/12 07:52:44;;;;;;;18.27;17.27;;;20.60;99.90;;;;;;4971910;28;20466;-76
2022/09/12 07:55:10;;;;;;;18.03;16.83;;;20.60;99.90;;;;;;4971493;28;20490;-76
2022/09/12 07:57:37;;;;;;;16.87;16.00;;;;;;;;;;4971875;28;20459;-75
2022/09/12 08:00:06;;;;;;;17.50;16.50;;;20.90;99.90;;;;;;4971075;28;20455;-76
2022/09/12 08:02:33;;;;;;;18.20;17.10;;;21.20;99.90;;;;;;4970886;28;20448;-76
2022/09/12 08:05:01;;;;;;;17.30;16.40;;;21.50;99.90;;;;;;4970621;28;20452;-76
2022/09/12 08:07:27;;;;;;;17.93;16.83;;;21.60;99.90;;;;;;4970257;28;20487;-76
2022/09/12 08:09:56;;;;;;;17.87;16.77;;;21.80;99.90;;;;;;4970497;28;20502;-75
2022/09/12 08:12:23;;;;;;;16.60;15.70;;;22.10;99.90;;;;;;4970686;28;20469;-76
2022/09/12 08:14:49;;;;;;;18.97;17.70;;;22.70;99.90;;;;;;4970319;28;20474;-75
2022/09/12 08:17:16;;;;;;;25.77;17.67;;;23.00;99.90;;;;;;4971311;28;20448;-76
2022/09/12 08:19:43;;;;;;;16.50;15.70;;;23.60;99.60;;;;;;4970932;28;20451;-76
2022/09/12 08:22:10;;;;;;;16.50;15.57;;;23.50;99.00;;;;;;4971198;28;20452;-76
2022/09/12 08:24:38;;;;;;;17.10;16.30;;;23.90;99.90;;;;;;4971349;28;20463;-77
2022/09/12 08:27:06;;;;;;;17.87;16.87;;;23.50;99.90;;;;;;4971218;28;20492;-75
2022/09/12 08:29:33;;;;;;;17.47;16.50;;;23.70;99.90;;;;;;4971312;28;20452;-75
2022/09/12 08:32:00;;;;;;;15.87;15.17;;;;;;;;;;4970709;28;20855;-76
2022/09/12 08:34:27;;;;;;;17.23;16.30;;;;;;;;;;4970882;28;20468;-75
2022/09/12 08:36:54;;;;;;;18.27;17.30;;;24.70;95.80;;;;;;4971400;28;20993;-76
2022/09/12 08:39:21;;;;;;;16.73;15.73;;;25.30;99.90;;;;;;4970384;28;20452;-75
2022/09/12 08:41:54;;;;;;;16.90;16.00;;;25.90;98.80;;;;;;4971606;28;20479;-77
2022/09/12 08:44:55;;;;;;;18.50;17.50;;;25.50;99.90;;;;;;4971132;28;20836;-76
2022/09/12 08:47:27;;;;;;;16.20;15.43;;;25.70;99.90;;;;;;4975397;28;20982;-75
2022/09/12 08:50:01;;;;;;;16.53;15.83;;;26.00;99.90;;;;;;4975396;28;20452;-76
2022/09/12 08:52:33;;;;;;;16.97;16.17;;;26.20;92.70;;;;;;4975549;28;20455;-76
2022/09/12 08:55:01;;;;;;;17.63;16.83;;;26.60;99.90;;;;;;4975278;28;20482;-76
2022/09/12 08:57:28;;;;;;;18.57;17.17;;;27.20;99.90;;;;;;4974968;28;20455;-76
2022/09/12 08:59:56;;;;;;;15.90;15.20;;;27.70;95.50;;;;;;4975114;28;20452;-76
2022/09/12 09:02:58;;;;;;;17.30;16.50;;;28.00;99.90;;;;;;4975153;28;20502;-76
2022/09/12 09:05:37;;;;;;;24.17;19.00;;;28.20;99.90;;;;;;4940110;28;21009;-76
2022/09/12 09:08:30;;;;;;;18.77;17.10;;;28.90;91.00;;;;;;4975332;28;20447;-76
2022/09/12 09:11:08;;;;;;;18.40;17.10;;;29.00;90.00;;;;;;4974733;28;20452;-76
2022/09/12 09:16:35;;;;;;;17.77;16.67;;;30.90;99.90;;;;;;4975167;28;20563;-75
2022/09/12 09:19:05;;;;;;;17.57;16.40;;;30.60;99.90;;;;;;4974359;28;20471;-75
2022/09/12 09:21:37;;;;;;;15.80;14.90;;;31.10;73.70;;;;;;4974386;28;20447;-75
2022/09/12 09:24:07;;;;;;;16.53;15.73;;;29.90;99.90;;;;;;4973249;28;20466;-76
2022/09/12 09:26:43;;;;;;;17.13;16.23;;;30.20;95.00;;;;;;4974351;28;20488;-75
2022/09/12 09:29:16;;;;;;;15.80;15.00;;;31.50;98.30;;;;;;4973875;28;20597;-76
2022/09/12 09:31:48;;;;;;;14.97;14.30;;;32.30;64.90;;;;;;4974632;28;20448;-76
2022/09/12 09:34:20;;;;;;;17.00;16.00;;;32.30;97.00;;;;;;4974414;28;20514;-76
2022/09/12 09:36:52;;;;;;;17.10;16.13;;;32.70;65.10;;;;;;4973981;28;20515;-77
2022/09/12 09:39:39;;;;;;;14.83;14.13;;;30.60;96.30;;;;;;4974274;28;20447;-75
2022/09/12 09:42:18;;;;;;;14.77;14.07;;;30.90;67.50;;;;;;4972492;28;20506;-76
2022/09/12 09:44:47;;;;;;;15.73;15.00;;;32.20;95.90;;;;;;4973583;28;20868;-77
2022/09/12 09:47:18;;;;;;;15.63;14.93;;;33.00;62.90;;;;;;4971189;28;21025;-76
2022/09/12 09:49:45;;;;;;;15.90;15.20;;;32.60;94.70;;;;;;4972952;28;20546;-74
2022/09/12 09:52:15;;;;;;;14.97;14.07;;;31.60;63.30;;;;;;4973874;28;20455;-76
2022/09/12 09:54:49;;;;;;;15.63;14.93;;;32.50;62.20;;;;;;4973242;28;20452;-76
2022/09/12 09:57:41;;;;;;;15.10;14.20;;;31.90;96.10;;;;;;4973070;28;20677;-76
2022/09/12 10:00:27;;;;;;;15.60;15.00;;;32.10;59.80;;;;;;4973133;28;20443;-76
2022/09/12 10:03:28;;;;;;;14.63;14.13;;;32.40;93.70;;;;;;4973725;28;20542;-77
2022/09/12 10:05:59;;;;;;;15.53;14.77;;;33.40;93.30;;;;;;4940648;28;20648;-76
2022/09/12 10:08:28;;;;;;;14.30;13.80;;;33.90;57.10;;;;;;4972863;28;20494;-76
2022/09/12 10:10:58;;;;;;;15.00;14.30;;;33.60;54.90;;;;;;4972803;28;20463;-76
2022/09/12 10:13:31;;;;;;;14.60;14.10;;;34.20;54.60;;;;;;4973084;28;20848;-77
2022/09/12 10:16:00;;;;;;;16.20;15.60;;;35.20;88.20;;;;;;4972623;28;20463;-77
2022/09/12 10:18:40;;;;;;;15.70;15.10;;;35.80;53.00;;;;;;4972538;28;20455;-77
2022/09/12 10:21:26;;;;;;;15.67;15.07;;;36.20;51.20;;;;;;4973275;28;20456;-76
2022/09/12 10:24:00;;;;;;;15.30;14.80;;;35.50;48.10;;;;;;4973278;28;20518;-76
2022/09/12 10:26:32;;;;;;;15.87;15.17;;;36.00;52.20;;;;;;4972814;28;20487;-76
2022/09/12 10:29:05;;;;;;;14.77;14.27;;;36.80;86.60;;;;;;4972706;28;20451;-76
2022/09/12 10:31:46;;;;;;;15.93;15.33;;;36.20;50.40;;;;;;4972159;28;20570;-76
2022/09/12 10:34:24;;;;;;;16.40;15.80;;;36.40;49.10;;;;;;4972414;28;20478;-76
2022/09/12 10:36:53;;;;;;;15.50;14.93;;;35.70;49.30;;;;;;4971932;28;20489;-76
2022/09/12 10:39:21;;;;;;;15.50;14.90;;;35.50;50.10;;;;;;4973534;28;20475;-76
2022/09/12 10:41:48;;;;;;;15.80;15.27;;;;;;;;;;4973150;28;20463;-75
2022/09/12 10:44:17;;;;;;;16.10;15.50;;;35.80;45.10;;;;;;4973338;28;20713;-77
2022/09/12 10:46:44;;;;;;;15.50;15.00;;;36.50;48.60;;;;;;4973241;28;20492;-76
2022/09/12 10:49:23;;;;;;;16.23;15.63;;;36.10;47.40;;;;;;4970653;28;20457;-76
2022/09/12 10:51:50;;;;;;;15.10;14.60;;;36.40;46.70;;;;;;4972931;28;20866;-75
2022/09/12 10:54:19;;;;;;;15.37;14.77;;;35.80;45.70;;;;;;4972968;28;20463;-75
2022/09/12 10:56:57;;;;;;;14.00;13.50;;;35.10;45.80;;;;;;4972842;28;20478;-74
2022/09/12 10:59:33;;;;;;;15.77;15.20;;;35.60;45.00;;;;;;4973564;28;20938;-76
2022/09/12 11:02:09;;;;;;;15.90;15.30;;;35.90;44.30;;;;;;4973090;28;20494;-75
2022/09/12 11:04:52;;;;;;;15.80;15.30;;;36.10;43.60;;;;;;4973112;28;20447;-76
2022/09/12 11:07:33;;;;;;;16.17;15.30;;;36.50;43.10;;;;;;4972295;28;20498;-75
2022/09/12 11:10:10;;;;;;;15.80;15.30;;;36.40;43.00;;;;;;4972358;28;20463;-76
2022/09/12 11:12:46;;;;;;;15.50;15.00;;;35.90;42.20;;;;;;4973012;28;20459;-75
2022/09/12 11:15:32;;;;;;;14.83;14.33;;;36.60;42.20;;;;;;4972320;28;20456;-76
2022/09/12 11:18:10;;;;;;;15.63;15.13;;;35.60;42.00;;;;;;4972666;28;20452;-76
2022/09/12 11:20:59;;;;;;;15.97;15.27;;;35.70;42.80;;;;;;4972334;28;20978;-76
2022/09/12 11:23:44;;;;;;;14.43;13.93;;;35.40;42.00;;;;;;4972880;28;20452;-76
2022/09/12 11:26:24;;;;;;;14.63;13.83;;;33.80;42.00;;;;;;4973206;28;20475;-77
2022/09/12 11:29:02;;;;;;;14.20;13.70;;;33.30;44.10;;;;;;4973193;28;20457;-77
2022/09/12 11:31:59;;;;;;;13.60;13.20;;;33.00;46.30;;;;;;4971808;28;20448;-77
2022/09/12 11:34:37;;;;;;;14.00;13.40;;;33.40;42.50;;;;;;4973514;28;20483;-76
2022/09/12 11:37:25;;;;;;;13.77;13.27;;;32.70;45.50;;;;;;4973491;28;20482;-76
2022/09/12 11:39:54;;;;;;;14.37;13.77;;;33.60;44.50;;;;;;4970626;28;20452;-76
2022/09/12 11:42:26;;;;;;;15.53;14.90;;;34.50;45.40;;;;;;4973030;28;20459;-76
2022/09/12 11:45:05;;;;;;;13.40;12.83;;;34.20;47.60;;;;;;4972686;28;20459;-76
2022/09/12 11:47:34;;;;;;;12.90;12.40;;;34.10;45.20;;;;;;4973753;28;20927;-76
2022/09/12 11:50:05;;;;;;;13.20;12.80;;;33.00;45.00;;;;;;4973386;28;20480;-76
2022/09/12 11:52:37;;;;;;;13.83;13.33;;;33.10;45.80;;;;;;4972587;28;20447;-75
2022/09/12 11:55:09;;;;;;;15.03;14.53;;;33.10;45.80;;;;;;4971554;28;20447;-76
2022/09/12 11:57:41;;;;;;;13.77;13.33;;;33.90;43.20;;;;;;4972912;28;20452;-76
2022/09/12 12:00:17;;;;;;;15.83;15.33;;;34.80;43.50;;;;;;4971445;28;20451;-76
2022/09/12 12:02:58;;;;;;;15.20;14.70;;;34.70;44.00;;;;;;4972129;28;21112;-77
2022/09/12 12:05:29;;;;;;;14.00;13.50;;;34.90;43.90;;;;;;4972145;28;20458;-78
2022/09/12 12:07:59;;;;;;;13.93;13.53;;;34.70;43.80;;;;;;4973058;28;20502;-79
2022/09/12 12:10:33;;;;;;;13.60;13.20;;;34.40;43.40;;;;;;4971967;28;21007;-77
2022/09/12 12:13:03;;;;;;;14.03;13.43;;;32.70;43.40;;;;;;4971909;28;20458;-75
2022/09/12 12:15:30;;;;;;;13.63;13.07;;;32.70;45.70;;;;;;4971536;28;20452;-76
2022/09/12 12:18:05;;;;;;;14.97;14.27;;;32.70;44.10;;;;;;4970640;28;20506;-75
2022/09/12 12:20:32;;;;;;;14.60;14.00;;;34.00;42.10;;;;;;4969880;28;20455;-76
2022/09/12 12:23:00;;;;;;;14.60;14.10;;;35.10;42.40;;;;;;4971539;28;20459;-76
2022/09/12 12:25:40;;;;;;;13.63;13.13;;;35.00;41.60;;;;;;4971111;28;20479;-76
2022/09/12 12:28:08;;;;;;;14.20;13.80;;;33.00;44.30;;;;;;4971669;28;20495;-76
2022/09/12 12:31:00;;;;;;;13.90;13.50;;;32.90;45.00;;;;;;4971317;28;20460;-77
2022/09/12 12:33:54;;;;;;;14.60;14.10;;;30.50;72.50;;;;;;4971061;28;20503;-76
2022/09/12 12:36:45;;;;;;;14.63;14.03;;;30.70;46.50;;;;;;4971756;28;20494;-78
2022/09/12 12:39:55;;;;;;;13.13;12.73;;;31.10;45.70;;;;;;4956264;28;20463;-76
2022/09/12 12:43:04;;;;;;;13.80;13.30;;;31.60;45.40;;;;;;4970908;28;20455;-76
2022/09/12 12:46:10;;;;;;;14.37;13.90;;;33.20;42.50;;;;;;4970441;28;20458;-77
2022/09/12 12:48:57;;;;;;;14.87;14.37;;;34.70;40.00;;;;;;4970967;28;20596;-76
2022/09/12 12:51:37;;;;;;;15.00;14.40;;;34.80;39.70;;;;;;4970647;28;20954;-76
2022/09/12 12:54:06;;;;;;;15.17;14.67;;;35.40;40.60;;;;;;4969914;28;20447;-77
2022/09/12 12:56:38;;;;;;;15.23;14.63;;;36.00;60.30;;;;;;4970297;28;20455;-76